Time;durP1;ratioP1;P1;durP2;ratioP2;P2;SDS_P1;SDS_P2;PMS_P1;PMS_P2;Temp;Humidity;BMP_temperature;BMP_pressure;BME280_temperature;BME280_humidity;BME280_pressure;Samples;Min_cycle;Max_cycle;Signal;HPM_P1;HPM_P2
2021/08/03 00:02:08;;;;;;;0.10;0.10;;;15.70;99.90;;;;;;5032182;28;20076;-87
2021/08/03 00:04:42;;;;;;;0.10;0.10;;;15.70;99.90;;;;;;5014943;28;20094;-87
2021/08/03 00:07:13;;;;;;;0.13;0.13;;;15.70;99.90;;;;;;5015613;28;20079;-87
2021/08/03 00:09:40;;;;;;;0.10;0.10;;;15.60;99.90;;;;;;5031463;28;20021;-87
2021/08/03 00:12:14;;;;;;;0.43;0.15;;;15.70;99.90;;;;;;5032216;28;20056;-87
2021/08/03 00:14:46;;;;;;;0.00;0.00;;;15.80;99.90;;;;;;5032677;28;20032;-89
2021/08/03 00:17:17;;;;;;;0.10;0.10;;;15.90;99.90;;;;;;5034105;28;20105;-89
2021/08/03 00:19:44;;;;;;;0.00;0.00;;;15.90;99.90;;;;;;5016316;28;20059;-89
2021/08/03 00:22:11;;;;;;;0.08;0.08;;;15.90;99.90;;;;;;5016403;28;20022;-89
2021/08/03 00:24:37;;;;;;;0.00;0.00;;;15.90;99.90;;;;;;5016403;28;20029;-89
2021/08/03 00:27:05;;;;;;;0.08;0.08;;;15.90;99.90;;;;;;5016252;28;20026;-89
2021/08/03 00:29:32;;;;;;;0.10;0.10;;;15.90;99.90;;;;;;5032642;28;20442;-89
2021/08/03 00:31:59;;;;;;;0.10;0.10;;;15.90;99.90;;;;;;5015881;28;20049;-88
2021/08/03 00:34:25;;;;;;;0.10;0.10;;;16.00;99.90;;;;;;5016305;28;20533;-89
2021/08/03 00:36:51;;;;;;;0.10;0.10;;;16.00;99.90;;;;;;5016226;28;20104;-89
2021/08/03 00:39:17;;;;;;;0.03;0.03;;;15.90;99.90;;;;;;5015980;28;20073;-89
2021/08/03 00:42:00;;;;;;;0.03;0.03;;;15.80;99.90;;;;;;5015814;28;20406;-89
2021/08/03 00:44:55;;;;;;;0.20;0.20;;;15.70;99.90;;;;;;5032188;28;20033;-89
2021/08/03 00:47:21;;;;;;;0.10;0.10;;;15.70;99.90;;;;;;5033287;28;20048;-88
2021/08/03 00:49:48;;;;;;;0.30;0.30;;;15.60;99.90;;;;;;5015813;28;20064;-89
2021/08/03 00:52:15;;;;;;;0.45;0.45;;;15.60;99.90;;;;;;5015655;28;20402;-89
2021/08/03 00:54:41;;;;;;;0.20;0.20;;;15.70;99.90;;;;;;5015916;28;20022;-89
2021/08/03 00:57:09;;;;;;;0.00;0.00;;;15.70;99.90;;;;;;5015584;28;20021;-89
2021/08/03 00:59:35;;;;;;;0.00;0.00;;;15.80;99.90;;;;;;5015682;28;20034;-89
2021/08/03 01:02:06;;;;;;;0.20;0.20;;;15.80;99.90;;;;;;5015488;28;20564;-89
2021/08/03 01:04:33;;;;;;;0.10;0.10;;;15.90;99.90;;;;;;5031582;28;20033;-89
2021/08/03 01:07:21;;;;;;;0.10;0.10;;;15.90;99.90;;;;;;5015716;28;20025;-89
2021/08/03 01:10:07;;;;;;;0.00;0.00;;;15.90;99.90;;;;;;5015347;28;20029;-88
2021/08/03 01:12:54;;;;;;;0.10;0.10;;;15.80;99.90;;;;;;5013362;28;20024;-87
2021/08/03 01:15:46;;;;;;;0.20;0.20;;;15.60;99.90;;;;;;5029910;28;20030;-87
2021/08/03 01:18:45;;;;;;;0.00;0.00;;;15.50;99.90;;;;;;5030857;28;20041;-87
2021/08/03 01:21:17;;;;;;;0.10;0.10;;;15.40;99.90;;;;;;4970466;28;20457;-87
2021/08/03 01:23:55;;;;;;;0.10;0.10;;;15.40;99.90;;;;;;4970827;28;20456;-87
2021/08/03 01:26:36;;;;;;;0.20;0.20;;;15.40;99.90;;;;;;4970531;28;20043;-87
2021/08/03 01:29:04;;;;;;;0.15;0.15;;;15.40;99.90;;;;;;4970865;28;20386;-88
2021/08/03 01:31:33;;;;;;;0.10;0.10;;;15.40;99.90;;;;;;4970026;28;20038;-87
2021/08/03 01:34:05;;;;;;;0.20;0.20;;;15.30;99.90;;;;;;4970633;28;20026;-88
2021/08/03 01:36:34;;;;;;;0.10;0.10;;;15.10;99.90;;;;;;4970358;28;20035;-87
2021/08/03 01:39:01;;;;;;;0.20;0.20;;;15.10;99.90;;;;;;4970397;28;20062;-88
2021/08/03 01:41:29;;;;;;;0.00;0.00;;;15.00;99.90;;;;;;4970766;28;20455;-88
2021/08/03 01:43:56;;;;;;;0.10;0.10;;;14.80;99.90;;;;;;4951516;29;20023;-88
2021/08/03 01:46:22;;;;;;;;;;;14.80;99.90;;;;;;4935393;29;20054;-88
2021/08/03 01:48:49;;;;;;;0.10;0.10;;;14.80;99.90;;;;;;4948182;28;19924;-88
2021/08/03 01:51:16;;;;;;;0.60;0.22;;;14.90;99.90;;;;;;4969990;28;20035;-87
2021/08/03 01:53:44;;;;;;;0.20;0.20;;;15.00;99.90;;;;;;4969275;28;20066;-88
2021/08/03 01:56:11;;;;;;;0.10;0.10;;;15.10;99.90;;;;;;4952885;28;20071;-87
2021/08/03 01:58:39;;;;;;;0.10;0.10;;;15.20;99.90;;;;;;5000707;28;20053;-87
2021/08/03 02:01:07;;;;;;;0.00;0.00;;;15.30;99.90;;;;;;5028482;28;20022;-87
2021/08/03 02:03:34;;;;;;;0.10;0.10;;;15.30;99.90;;;;;;5029859;28;20079;-87
2021/08/03 02:06:02;;;;;;;0.03;0.03;;;15.20;99.90;;;;;;5029697;28;20793;-87
2021/08/03 02:08:29;;;;;;;0.00;0.00;;;15.10;99.90;;;;;;5029649;28;20026;-87
2021/08/03 02:10:55;;;;;;;0.00;0.00;;;15.10;99.90;;;;;;5011903;28;20520;-87
2021/08/03 02:13:23;;;;;;;0.20;0.20;;;15.10;99.90;;;;;;5029559;28;20041;-87
2021/08/03 02:15:49;;;;;;;0.00;0.00;;;15.10;99.90;;;;;;5014749;28;20033;-88
2021/08/03 02:18:16;;;;;;;0.00;0.00;;;15.10;99.90;;;;;;5015651;28;20041;-88
2021/08/03 02:20:45;;;;;;;0.00;0.00;;;15.00;99.90;;;;;;5015502;28;20060;-87
2021/08/03 02:23:12;;;;;;;0.10;0.10;;;15.10;99.90;;;;;;5015764;28;20033;-88
2021/08/03 02:25:38;;;;;;;;;;;15.00;99.90;;;;;;5033294;28;20018;-87
2021/08/03 02:28:05;;;;;;;0.40;0.40;;;15.10;99.90;;;;;;5015199;28;20682;-87
2021/08/03 02:30:31;;;;;;;0.10;0.10;;;15.20;99.90;;;;;;5033451;28;20459;-87
2021/08/03 02:33:06;;;;;;;0.00;0.00;;;15.20;99.90;;;;;;5015318;28;20092;-87
2021/08/03 02:35:47;;;;;;;0.20;0.20;;;15.20;99.90;;;;;;5032726;28;20045;-87
2021/08/03 02:38:19;;;;;;;0.20;0.20;;;15.30;99.90;;;;;;5014184;28;20498;-87
2021/08/03 02:40:45;;;;;;;0.22;0.10;;;15.30;99.90;;;;;;5032895;28;20089;-87
2021/08/03 02:43:15;;;;;;;0.10;0.10;;;15.40;99.90;;;;;;5015802;28;20411;-87
2021/08/03 02:45:42;;;;;;;0.10;0.10;;;15.40;99.90;;;;;;5015926;28;20033;-87
2021/08/03 02:48:12;;;;;;;0.10;0.10;;;15.40;99.90;;;;;;5033878;28;20079;-87
2021/08/03 02:50:42;;;;;;;1.17;0.40;;;15.40;99.90;;;;;;5032370;28;20037;-87
2021/08/03 02:53:15;;;;;;;0.28;0.28;;;15.20;99.90;;;;;;5032711;28;20025;-87
2021/08/03 02:56:12;;;;;;;0.17;0.15;;;14.90;99.90;;;;;;5015241;28;20039;-86
2021/08/03 02:58:43;;;;;;;0.10;0.10;;;14.80;99.90;;;;;;5001417;28;20125;-86
2021/08/03 03:01:12;;;;;;;0.00;0.00;;;14.90;99.90;;;;;;5002526;28;20159;-86
2021/08/03 03:03:44;;;;;;;0.00;0.00;;;14.90;99.90;;;;;;5031909;28;20026;-87
2021/08/03 03:06:12;;;;;;;0.25;0.25;;;14.70;99.90;;;;;;5031701;28;20479;-86
2021/08/03 03:08:42;;;;;;;0.20;0.20;;;14.60;99.90;;;;;;5012295;28;20030;-87
2021/08/03 03:11:10;;;;;;;0.20;0.20;;;14.40;99.90;;;;;;5012681;28;20021;-87
2021/08/03 03:13:47;;;;;;;0.10;0.10;;;14.30;99.90;;;;;;5020457;28;20542;-86
2021/08/03 03:16:18;;;;;;;0.00;0.00;;;14.20;99.90;;;;;;5014144;28;20066;-86
2021/08/03 03:18:44;;;;;;;0.10;0.10;;;14.10;99.90;;;;;;5013211;28;20026;-87
2021/08/03 03:21:14;;;;;;;0.20;0.20;;;14.10;99.90;;;;;;5013297;28;20037;-86
2021/08/03 03:23:41;;;;;;;0.20;0.20;;;14.10;99.90;;;;;;5013365;28;20026;-86
2021/08/03 03:26:07;;;;;;;0.00;0.00;;;14.10;99.90;;;;;;5029226;28;20025;-86
2021/08/03 03:28:37;;;;;;;0.22;0.22;;;14.20;99.90;;;;;;5031473;28;20064;-87
2021/08/03 03:31:04;;;;;;;0.10;0.10;;;14.20;99.90;;;;;;5031283;28;20125;-86
2021/08/03 03:33:32;;;;;;;;;;;14.20;99.90;;;;;;5013848;28;20026;-86
2021/08/03 03:36:00;;;;;;;0.10;0.10;;;14.20;99.90;;;;;;5008945;28;19913;-87
2021/08/03 03:38:31;;;;;;;0.08;0.08;;;14.30;99.90;;;;;;5010391;28;20037;-87
2021/08/03 03:40:57;;;;;;;0.10;0.10;;;14.30;99.90;;;;;;5004480;28;20026;-86
2021/08/03 03:43:23;;;;;;;0.63;0.20;;;14.40;99.90;;;;;;5031213;28;20082;-87
2021/08/03 03:46:08;;;;;;;0.20;0.20;;;14.50;99.90;;;;;;5026858;28;20495;-86
2021/08/03 03:48:39;;;;;;;0.30;0.30;;;14.60;99.90;;;;;;5031689;28;20524;-87
2021/08/03 03:51:08;;;;;;;0.10;0.10;;;14.70;99.90;;;;;;5014036;28;20030;-87
2021/08/03 03:53:45;;;;;;;0.10;0.10;;;14.50;99.90;;;;;;5031625;28;20036;-86
2021/08/03 03:56:11;;;;;;;;;;;14.30;99.90;;;;;;5032576;28;20100;-88
2021/08/03 03:58:41;;;;;;;0.22;0.22;;;14.10;99.90;;;;;;5016023;28;20297;-91
2021/08/03 04:01:12;;;;;;;0.20;0.20;;;14.10;99.90;;;;;;5016089;28;20029;-87
2021/08/03 04:03:41;;;;;;;0.10;0.10;;;14.00;99.90;;;;;;5032539;28;20032;-86
2021/08/03 04:06:08;;;;;;;0.10;0.10;;;14.10;99.90;;;;;;5013750;28;20029;-86
2021/08/03 04:08:38;;;;;;;0.30;0.30;;;14.10;99.90;;;;;;5031188;28;20040;-85
2021/08/03 04:11:04;;;;;;;0.10;0.10;;;13.90;99.90;;;;;;5013200;28;20033;-86
2021/08/03 04:13:30;;;;;;;0.25;0.10;;;13.70;99.90;;;;;;5013461;28;20025;-87
2021/08/03 04:15:57;;;;;;;0.10;0.10;;;13.80;99.90;;;;;;5015004;28;20041;-88
2021/08/03 04:18:23;;;;;;;0.10;0.10;;;14.00;99.90;;;;;;5014198;28;20071;-87
2021/08/03 04:20:49;;;;;;;0.00;0.00;;;14.10;99.90;;;;;;5013741;28;20030;-87
2021/08/03 04:23:14;;;;;;;0.57;0.20;;;14.10;99.90;;;;;;5013243;28;20036;-89
2021/08/03 04:25:41;;;;;;;0.10;0.10;;;14.10;99.90;;;;;;5014238;28;20797;-87
2021/08/03 04:28:08;;;;;;;0.10;0.10;;;14.20;99.90;;;;;;5030543;28;20518;-87
2021/08/03 04:30:34;;;;;;;0.32;0.32;;;14.40;99.90;;;;;;5012391;28;20398;-87
2021/08/03 04:33:00;;;;;;;0.10;0.10;;;14.50;99.90;;;;;;5012689;28;20040;-87
2021/08/03 04:35:26;;;;;;;0.50;0.50;;;14.00;99.90;;;;;;5028102;28;20045;-81
2021/08/03 04:37:51;;;;;;;0.10;0.10;;;13.90;99.90;;;;;;5027456;28;20041;-80
2021/08/03 04:40:21;;;;;;;0.20;0.20;;;14.00;99.90;;;;;;5010841;28;20032;-81
2021/08/03 04:42:48;;;;;;;0.25;0.15;;;14.20;99.90;;;;;;5029023;28;20874;-81
2021/08/03 04:45:14;;;;;;;0.20;0.20;;;14.50;99.90;;;;;;5011461;28;20036;-81
2021/08/03 04:47:42;;;;;;;0.45;0.45;;;14.70;99.90;;;;;;5027326;28;20688;-81
2021/08/03 04:50:14;;;;;;;0.10;0.10;;;14.80;99.90;;;;;;5029270;28;20033;-81
2021/08/03 04:52:40;;;;;;;0.15;0.15;;;14.70;99.90;;;;;;5028581;28;20037;-81
2021/08/03 04:55:06;;;;;;;0.60;0.40;;;14.60;99.90;;;;;;5010731;28;20086;-81
2021/08/03 04:57:32;;;;;;;0.10;0.10;;;14.90;99.90;;;;;;5010889;28;20123;-81
2021/08/03 04:59:58;;;;;;;0.30;0.30;;;15.00;99.90;;;;;;5028323;28;20447;-81
2021/08/03 05:02:24;;;;;;;0.10;0.10;;;14.00;99.90;;;;;;5028135;28;20394;-80
2021/08/03 05:04:49;;;;;;;0.10;0.10;;;13.70;99.90;;;;;;5028784;28;20036;-81
2021/08/03 05:07:15;;;;;;;0.10;0.10;;;13.70;99.90;;;;;;5027907;28;20105;-80
2021/08/03 05:09:44;;;;;;;0.30;0.30;;;14.10;99.90;;;;;;5027586;28;20034;-81
2021/08/03 05:12:10;;;;;;;0.10;0.10;;;14.20;99.90;;;;;;5026974;28;20117;-80
2021/08/03 05:14:36;;;;;;;0.43;0.10;;;14.30;99.90;;;;;;5028184;28;20096;-81
2021/08/03 05:17:02;;;;;;;0.20;0.17;;;14.40;99.90;;;;;;5028728;28;20021;-81
2021/08/03 05:19:27;;;;;;;0.20;0.20;;;14.50;99.90;;;;;;5029058;28;20021;-83
2021/08/03 05:21:53;;;;;;;0.10;0.10;;;14.50;99.90;;;;;;5028531;28;20108;-82
2021/08/03 05:24:25;;;;;;;0.13;0.13;;;14.80;99.90;;;;;;5029205;28;20021;-83
2021/08/03 05:26:52;;;;;;;0.10;0.10;;;15.00;99.90;;;;;;5028206;28;20082;-83
2021/08/03 05:29:18;;;;;;;0.10;0.10;;;15.20;99.90;;;;;;5028912;28;20033;-83
2021/08/03 05:31:44;;;;;;;0.40;0.40;;;15.10;99.90;;;;;;5028989;28;20038;-83
2021/08/03 05:34:10;;;;;;;0.10;0.10;;;15.10;99.90;;;;;;5028973;28;20026;-83
2021/08/03 05:36:36;;;;;;;0.10;0.10;;;15.40;99.90;;;;;;5003849;28;20132;-83
2021/08/03 05:39:02;;;;;;;0.10;0.10;;;15.40;99.90;;;;;;5008959;28;20022;-83
2021/08/03 05:41:28;;;;;;;0.10;0.10;;;15.50;99.90;;;;;;5018535;28;20060;-83
2021/08/03 05:43:54;;;;;;;0.20;0.20;;;15.40;99.90;;;;;;5028535;28;20568;-83
2021/08/03 05:46:19;;;;;;;0.53;0.53;;;15.20;99.90;;;;;;5028994;28;20405;-82
2021/08/03 05:48:45;;;;;;;0.23;0.23;;;14.90;99.90;;;;;;5028796;28;20045;-83
2021/08/03 05:51:11;;;;;;;0.50;0.40;;;15.00;99.90;;;;;;5028595;28;20033;-83
2021/08/03 05:53:37;;;;;;;0.10;0.10;;;15.10;99.90;;;;;;5029000;28;20115;-83
2021/08/03 05:56:02;;;;;;;0.27;0.27;;;15.20;99.90;;;;;;5028020;28;20033;-82
2021/08/03 05:58:28;;;;;;;0.10;0.10;;;15.00;99.90;;;;;;5027985;28;20043;-83
2021/08/03 06:00:54;;;;;;;0.20;0.20;;;14.90;99.90;;;;;;5010396;28;20022;-83
2021/08/03 06:03:21;;;;;;;0.10;0.10;;;14.90;99.90;;;;;;5009962;28;20122;-83
2021/08/03 06:05:48;;;;;;;0.45;0.45;;;15.10;99.90;;;;;;5026115;28;20028;-83
2021/08/03 06:08:17;;;;;;;0.00;0.00;;;15.00;99.90;;;;;;5027450;28;20514;-82
2021/08/03 06:10:45;;;;;;;0.25;0.25;;;15.30;99.90;;;;;;5027713;28;20040;-83
2021/08/03 06:13:12;;;;;;;0.10;0.10;;;15.70;99.90;;;;;;5027105;28;20036;-82
2021/08/03 06:15:40;;;;;;;0.00;0.00;;;16.00;99.90;;;;;;5028050;28;20091;-81
2021/08/03 06:18:13;;;;;;;0.10;0.10;;;16.20;99.90;;;;;;5027117;28;20494;-80
2021/08/03 06:20:42;;;;;;;0.10;0.10;;;16.50;99.90;;;;;;5027622;28;20104;-81
2021/08/03 06:23:12;;;;;;;0.15;0.15;;;16.30;99.90;;;;;;5027700;28;20072;-81
2021/08/03 06:25:40;;;;;;;0.00;0.00;;;16.20;99.90;;;;;;5027623;28;20029;-81
2021/08/03 06:28:06;;;;;;;0.15;0.15;;;16.10;99.90;;;;;;5027720;28;20071;-81
2021/08/03 06:30:39;;;;;;;0.20;0.20;;;16.10;99.90;;;;;;5023962;28;20021;-81
2021/08/03 06:33:08;;;;;;;0.10;0.10;;;16.30;99.90;;;;;;5027448;28;20029;-80
2021/08/03 06:35:34;;;;;;;0.20;0.20;;;16.50;99.90;;;;;;5026965;28;20143;-81
2021/08/03 06:38:00;;;;;;;1.00;0.47;;;16.60;99.90;;;;;;5027652;28;20064;-81
2021/08/03 06:40:29;;;;;;;0.00;0.00;;;16.90;99.90;;;;;;5027207;28;20454;-81
2021/08/03 06:43:07;;;;;;;0.28;0.28;;;17.20;99.90;;;;;;5027243;28;20928;-81
2021/08/03 06:45:34;;;;;;;0.70;0.68;;;17.80;99.90;;;;;;5027088;28;20036;-80
2021/08/03 06:48:07;;;;;;;0.38;0.10;;;18.30;99.90;;;;;;5026238;28;20045;-82
2021/08/03 06:50:41;;;;;;;0.10;0.10;;;18.40;99.90;;;;;;5027327;28;20029;-82
2021/08/03 06:53:09;;;;;;;0.20;0.20;;;18.10;99.90;;;;;;5026811;28;20029;-81
2021/08/03 06:55:41;;;;;;;0.35;0.35;;;18.60;99.90;;;;;;5000534;28;20083;-83
2021/08/03 06:58:12;;;;;;;0.10;0.10;;;18.90;99.90;;;;;;5026769;28;20029;-82
2021/08/03 07:00:41;;;;;;;0.35;0.35;;;20.70;99.90;;;;;;5026372;28;20049;-82
2021/08/03 07:03:08;;;;;;;0.00;0.00;;;21.20;99.90;;;;;;5025993;28;20541;-82
2021/08/03 07:05:37;;;;;;;;;;;21.20;99.90;;;;;;5030519;28;20049;-82
2021/08/03 07:08:02;;;;;;;0.00;0.00;;;22.10;99.90;;;;;;5030579;28;19988;-82
2021/08/03 07:10:29;;;;;;;7.07;0.38;;;21.60;99.90;;;;;;5012017;28;20120;-82
2021/08/03 07:12:56;;;;;;;4.25;1.27;;;21.40;99.90;;;;;;5029581;28;20037;-82
2021/08/03 07:15:26;;;;;;;0.00;0.00;;;21.40;99.90;;;;;;5027028;28;20030;-82
2021/08/03 07:17:54;;;;;;;0.55;0.45;;;22.10;99.90;;;;;;5020569;28;20084;-82
2021/08/03 07:20:21;;;;;;;0.03;0.03;;;23.20;99.90;;;;;;5020117;28;20064;-82
2021/08/03 07:22:48;;;;;;;1.08;0.98;;;22.70;99.90;;;;;;5021304;28;20030;-82
2021/08/03 07:25:18;;;;;;;0.10;0.10;;;22.30;99.90;;;;;;5002665;28;20487;-81
2021/08/03 07:27:43;;;;;;;7.72;1.27;;;22.10;99.90;;;;;;5020666;28;20025;-82
2021/08/03 07:30:10;;;;;;;0.00;0.00;;;20.90;99.90;;;;;;5020673;28;20525;-83
2021/08/03 07:32:39;;;;;;;0.00;0.00;;;21.00;99.90;;;;;;5024541;28;20087;-82
2021/08/03 07:35:06;;;;;;;0.00;0.00;;;22.30;99.90;;;;;;5030014;28;20080;-82
2021/08/03 07:37:32;;;;;;;0.45;0.35;;;23.90;99.90;;;;;;5029126;28;20037;-82
2021/08/03 07:39:58;;;;;;;0.38;0.35;;;22.80;99.90;;;;;;5029538;28;20021;-83
2021/08/03 07:42:27;;;;;;;0.00;0.00;;;22.30;99.90;;;;;;5025159;28;20030;-83
2021/08/03 07:44:53;;;;;;;0.75;0.30;;;21.90;99.90;;;;;;5026724;28;20038;-83
2021/08/03 07:47:18;;;;;;;0.30;0.13;;;20.40;99.90;;;;;;5028807;28;20056;-83
2021/08/03 07:49:46;;;;;;;0.00;0.00;;;21.30;99.90;;;;;;5023790;28;20025;-83
2021/08/03 07:52:11;;;;;;;0.08;0.08;;;23.00;99.90;;;;;;5024907;28;20021;-83
2021/08/03 07:54:37;;;;;;;0.40;0.25;;;22.30;99.90;;;;;;5018858;28;20037;-83
2021/08/03 07:57:04;;;;;;;0.10;0.10;;;22.60;99.90;;;;;;5019723;28;20049;-83
2021/08/03 07:59:29;;;;;;;0.00;0.00;;;25.50;97.30;;;;;;5005044;28;20499;-83
2021/08/03 08:01:55;;;;;;;0.07;0.07;;;29.60;91.00;;;;;;5002680;28;20032;-82
2021/08/03 08:04:21;;;;;;;0.30;0.30;;;27.50;90.00;;;;;;5027598;28;20084;-82
2021/08/03 08:06:47;;;;;;;0.00;0.00;;;24.00;93.50;;;;;;5028474;28;20781;-83
2021/08/03 08:09:12;;;;;;;0.00;0.00;;;22.70;95.70;;;;;;5026577;28;20525;-83
2021/08/03 08:11:39;;;;;;;0.20;0.20;;;22.10;96.80;;;;;;5028750;28;20082;-83
2021/08/03 08:14:05;;;;;;;0.52;0.10;;;21.10;97.50;;;;;;5011137;28;20653;-83
2021/08/03 08:16:32;;;;;;;0.00;0.00;;;21.00;99.10;;;;;;5028645;28;20041;-83
2021/08/03 08:18:58;;;;;;;0.10;0.10;;;20.80;98.70;;;;;;5028733;28;20386;-83
2021/08/03 08:21:24;;;;;;;;;;;21.30;99.10;;;;;;5029058;28;20771;-81
2021/08/03 08:23:51;;;;;;;0.00;0.00;;;21.60;97.90;;;;;;5028439;28;19909;-80
2021/08/03 08:26:18;;;;;;;0.20;0.20;;;21.70;97.80;;;;;;5029238;28;20033;-81
2021/08/03 08:28:44;;;;;;;0.65;0.55;;;21.00;97.60;;;;;;5028526;28;20040;-80
2021/08/03 08:31:10;;;;;;;0.10;0.10;;;21.30;98.00;;;;;;5025685;28;20026;-81
2021/08/03 08:33:36;;;;;;;0.13;0.13;;;21.20;97.30;;;;;;5028366;28;20068;-81
2021/08/03 08:36:03;;;;;;;0.00;0.00;;;20.90;99.50;;;;;;5010607;28;20080;-81
2021/08/03 08:38:29;;;;;;;0.08;0.08;;;20.50;99.30;;;;;;5028367;28;20017;-81
2021/08/03 08:40:56;;;;;;;;;;;20.60;99.10;;;;;;5017053;28;20494;-81
2021/08/03 08:43:24;;;;;;;0.20;0.20;;;21.80;98.20;;;;;;5022257;28;20448;-80
2021/08/03 08:45:55;;;;;;;0.15;0.15;;;21.90;96.80;;;;;;5025416;28;20122;-81
2021/08/03 08:48:23;;;;;;;0.00;0.00;;;21.40;97.20;;;;;;5019655;28;20057;-81
2021/08/03 08:50:56;;;;;;;4.80;0.28;;;21.10;97.40;;;;;;5014627;28;20087;-81
2021/08/03 08:53:29;;;;;;;0.00;0.00;;;20.70;98.00;;;;;;5013996;28;20059;-81
2021/08/03 08:55:56;;;;;;;0.10;0.10;;;21.20;97.80;;;;;;5002923;28;20509;-81
2021/08/03 08:58:23;;;;;;;0.15;0.15;;;20.20;98.60;;;;;;5008294;28;20040;-86
2021/08/03 09:00:55;;;;;;;0.15;0.03;;;20.50;99.10;;;;;;5010016;28;20032;-86
2021/08/03 09:03:23;;;;;;;1.73;1.30;;;21.30;97.50;;;;;;5027793;28;20029;-91
2021/08/03 09:06:02;;;;;;;1.30;1.23;;;21.10;97.60;;;;;;5027629;28;20025;-90
2021/08/03 09:08:36;;;;;;;1.85;1.10;;;20.70;97.90;;;;;;5026308;28;20155;-90
2021/08/03 09:11:07;;;;;;;0.28;0.28;;;20.40;99.00;;;;;;5026722;28;20032;-90
2021/08/03 09:13:51;;;;;;;0.20;0.20;;;20.30;99.20;;;;;;5025381;28;20082;-90
2021/08/03 09:16:19;;;;;;;8.50;0.30;;;20.50;98.90;;;;;;5020696;28;20033;-89
2021/08/03 09:18:46;;;;;;;0.00;0.00;;;20.50;99.10;;;;;;5017841;28;20483;-90
2021/08/03 09:21:29;;;;;;;0.00;0.00;;;20.50;99.60;;;;;;5022390;28;20074;-90
2021/08/03 09:23:57;;;;;;;0.10;0.10;;;20.40;99.90;;;;;;5026980;28;20104;-91
2021/08/03 09:26:58;;;;;;;1.60;0.70;;;20.40;99.90;;;;;;5009858;28;20025;-91
2021/08/03 09:29:25;;;;;;;0.10;0.10;;;20.40;99.60;;;;;;4966285;28;20117;-90
2021/08/03 09:31:52;;;;;;;;;;;20.50;99.00;;;;;;4967068;28;20130;-90
2021/08/03 09:34:18;;;;;;;0.10;0.10;;;20.70;98.70;;;;;;4966779;28;19906;-90
2021/08/03 09:36:49;;;;;;;0.10;0.10;;;20.60;98.00;;;;;;4966595;28;20095;-90
2021/08/03 09:40:00;;;;;;;0.00;0.00;;;20.60;98.00;;;;;;4966337;28;20049;-90
2021/08/03 09:42:27;;;;;;;0.52;0.40;;;20.90;97.80;;;;;;4963212;28;20034;-90
2021/08/03 09:45:02;;;;;;;0.00;0.00;;;20.90;97.60;;;;;;4967171;28;20053;-90
2021/08/03 09:47:31;;;;;;;0.20;0.20;;;20.90;97.60;;;;;;4965874;28;20455;-90
2021/08/03 09:50:00;;;;;;;0.10;0.10;;;21.00;98.10;;;;;;4960248;28;20471;-90
2021/08/03 09:52:28;;;;;;;0.20;0.20;;;21.60;96.50;;;;;;4965247;28;20027;-90
2021/08/03 09:55:09;;;;;;;0.00;0.00;;;22.00;96.00;;;;;;4967072;28;20027;-90
2021/08/03 09:57:36;;;;;;;0.95;0.20;;;21.80;96.10;;;;;;4949390;28;20050;-90
2021/08/03 10:00:23;;;;;;;0.00;0.00;;;21.90;95.20;;;;;;4966760;28;20186;-90
2021/08/03 10:02:50;;;;;;;1.65;1.25;;;21.80;94.70;;;;;;4966510;28;20562;-90
2021/08/03 10:05:16;;;;;;;;;;;21.60;95.20;;;;;;5010065;28;20029;-90
2021/08/03 10:07:44;;;;;;;0.10;0.10;;;21.00;96.30;;;;;;5025609;28;19909;-91
2021/08/03 10:10:12;;;;;;;0.00;0.00;;;20.90;95.80;;;;;;5027473;28;20032;-91
2021/08/03 10:12:39;;;;;;;0.00;0.00;;;20.80;95.20;;;;;;5026502;28;20063;-91
2021/08/03 10:15:10;;;;;;;0.00;0.00;;;20.90;95.50;;;;;;5010251;28;20406;-91
2021/08/03 10:17:37;;;;;;;0.10;0.10;;;21.10;94.70;;;;;;5027179;28;20021;-91
2021/08/03 10:20:05;;;;;;;0.20;0.20;;;21.80;94.20;;;;;;5026731;28;20032;-91
2021/08/03 10:22:35;;;;;;;0.22;0.15;;;22.70;92.90;;;;;;5026734;28;20041;-91
2021/08/03 10:25:03;;;;;;;0.00;0.00;;;23.10;92.40;;;;;;5018569;28;20025;-90
2021/08/03 10:27:49;;;;;;;0.28;0.28;;;23.50;91.20;;;;;;5019285;28;20092;-91
2021/08/03 10:30:27;;;;;;;0.00;0.00;;;23.40;91.00;;;;;;5020422;28;20076;-91
2021/08/03 10:32:54;;;;;;;0.13;0.13;;;23.40;90.40;;;;;;5017928;28;20129;-91
2021/08/03 10:35:49;;;;;;;7.03;0.32;;;23.00;91.10;;;;;;5017288;28;20562;-90
2021/08/03 10:38:19;;;;;;;0.00;0.00;;;22.40;91.20;;;;;;5024793;28;20040;-91
2021/08/03 10:40:46;;;;;;;0.20;0.10;;;21.50;91.30;;;;;;5021514;28;20018;-91
2021/08/03 10:43:17;;;;;;;0.08;0.08;;;21.10;92.20;;;;;;5026865;28;20042;-91
2021/08/03 10:45:44;;;;;;;0.15;0.15;;;20.60;93.90;;;;;;5009541;28;20021;-90
2021/08/03 10:48:11;;;;;;;0.20;0.20;;;20.30;94.40;;;;;;5025069;28;20038;-91
2021/08/03 10:50:38;;;;;;;0.00;0.00;;;20.30;93.80;;;;;;5028042;28;20125;-91
2021/08/03 10:53:04;;;;;;;0.00;0.00;;;20.20;94.00;;;;;;5028134;28;20498;-91
2021/08/03 10:55:45;;;;;;;0.20;0.20;;;20.20;93.80;;;;;;5032705;28;20057;-90
2021/08/03 10:58:11;;;;;;;0.00;0.00;;;20.00;94.90;;;;;;5031281;28;20033;-89
2021/08/03 11:00:54;;;;;;;0.00;0.00;;;19.90;94.60;;;;;;5031047;28;20022;-92
2021/08/03 11:03:42;;;;;;;0.43;0.15;;;20.40;94.00;;;;;;5025716;28;20044;-90
2021/08/03 11:06:11;;;;;;;0.00;0.00;;;20.50;94.20;;;;;;5020518;28;20505;-91
2021/08/03 11:08:42;;;;;;;0.00;0.00;;;20.50;94.30;;;;;;5008871;28;20086;-89
2021/08/03 11:11:18;;;;;;;0.00;0.00;;;20.50;94.40;;;;;;5029661;28;20021;-89
2021/08/03 11:13:48;;;;;;;0.00;0.00;;;20.60;93.80;;;;;;5012080;28;20116;-89
2021/08/03 11:16:20;;;;;;;0.00;0.00;;;20.50;93.60;;;;;;5023823;28;20032;-90
2021/08/03 11:18:50;;;;;;;0.00;0.00;;;20.60;94.70;;;;;;5025109;28;20063;-88
2021/08/03 11:21:23;;;;;;;0.20;0.10;;;21.00;93.20;;;;;;5023912;28;20457;-89
2021/08/03 11:24:13;;;;;;;0.10;0.10;;;21.50;92.60;;;;;;5014783;28;20026;-90
2021/08/03 11:26:48;;;;;;;0.00;0.00;;;21.40;92.10;;;;;;5031914;28;20868;-89
2021/08/03 11:29:16;;;;;;;0.47;0.10;;;21.10;91.80;;;;;;5030163;28;20407;-90
2021/08/03 11:31:53;;;;;;;0.00;0.00;;;20.90;92.70;;;;;;5027482;28;20426;-90
2021/08/03 11:34:33;;;;;;;0.10;0.10;;;20.80;92.90;;;;;;5010644;28;20414;-89
2021/08/03 11:37:06;;;;;;;0.00;0.00;;;20.70;99.00;;;;;;5028828;28;20029;-89
2021/08/03 11:39:52;;;;;;;1.02;0.20;;;20.60;93.50;;;;;;5029352;28;20034;-89
2021/08/03 11:42:36;;;;;;;0.00;0.00;;;20.50;93.30;;;;;;5012608;28;20030;-88
2021/08/03 11:45:06;;;;;;;0.00;0.00;;;21.00;92.80;;;;;;5029708;28;20024;-90
2021/08/03 11:47:53;;;;;;;0.38;0.10;;;21.10;92.20;;;;;;5029327;28;20099;-90
2021/08/03 11:50:39;;;;;;;0.10;0.10;;;21.00;91.90;;;;;;5012082;28;20030;-90
2021/08/03 11:53:17;;;;;;;0.00;0.00;;;20.80;92.50;;;;;;5029258;28;20033;-89
2021/08/03 11:55:46;;;;;;;0.00;0.00;;;21.20;91.80;;;;;;5029219;28;20029;-88
2021/08/03 11:58:19;;;;;;;0.00;0.00;;;21.70;90.90;;;;;;5029519;28;20036;-89
2021/08/03 12:00:45;;;;;;;0.00;0.00;;;20.70;92.70;;;;;;5010062;28;20022;-89
2021/08/03 12:03:11;;;;;;;0.10;0.10;;;21.00;92.00;;;;;;4992071;28;20052;-89
2021/08/03 12:05:38;;;;;;;0.00;0.00;;;21.20;92.10;;;;;;5010537;28;20029;-89
2021/08/03 12:08:11;;;;;;;0.00;0.00;;;20.90;91.70;;;;;;5007398;28;20403;-89
2021/08/03 12:10:46;;;;;;;0.00;0.00;;;21.20;91.50;;;;;;5014828;28;20024;-90
2021/08/03 12:13:28;;;;;;;0.00;0.00;;;21.30;91.80;;;;;;4998116;28;20109;-88
2021/08/03 12:15:56;;;;;;;0.00;0.00;;;21.40;91.90;;;;;;5013854;28;20041;-89
2021/08/03 12:18:23;;;;;;;0.10;0.03;;;21.70;91.10;;;;;;5021728;28;20125;-88
2021/08/03 12:20:57;;;;;;;0.00;0.00;;;21.70;90.60;;;;;;5015236;28;20031;-88
2021/08/03 12:23:27;;;;;;;0.10;0.10;;;21.00;91.50;;;;;;5015506;28;20116;-87
2021/08/03 12:25:59;;;;;;;0.00;0.00;;;21.00;91.60;;;;;;5016534;28;20022;-88
2021/08/03 12:28:28;;;;;;;0.00;0.00;;;20.60;92.10;;;;;;5015566;28;20049;-87
2021/08/03 12:30:55;;;;;;;0.03;0.03;;;20.70;92.30;;;;;;5015082;28;20052;-88
2021/08/03 12:33:49;;;;;;;0.00;0.00;;;20.60;92.10;;;;;;5005458;28;20544;-89
2021/08/03 12:36:16;;;;;;;0.00;0.00;;;20.40;91.40;;;;;;5016938;28;20060;-89
2021/08/03 12:39:03;;;;;;;0.10;0.10;;;20.50;92.30;;;;;;5026082;28;20096;-89
2021/08/03 12:41:30;;;;;;;0.00;0.00;;;20.50;92.20;;;;;;5027884;28;20033;-89
2021/08/03 12:44:00;;;;;;;0.10;0.10;;;20.40;92.70;;;;;;5027583;28;20079;-89
2021/08/03 12:46:37;;;;;;;0.00;0.00;;;20.60;92.40;;;;;;5028881;28;20434;-89
2021/08/03 12:49:05;;;;;;;0.03;0.03;;;20.60;92.10;;;;;;5023583;28;20413;-89
2021/08/03 12:51:34;;;;;;;0.00;0.00;;;20.70;92.10;;;;;;5023086;28;20071;-89
2021/08/03 12:54:20;;;;;;;0.00;0.00;;;20.80;92.20;;;;;;5005306;28;20523;-87
2021/08/03 12:56:53;;;;;;;;;;;20.90;92.30;;;;;;5026562;28;20025;-90
2021/08/03 12:59:41;;;;;;;0.00;0.00;;;20.60;92.20;;;;;;5018874;28;20310;-89
2021/08/03 13:02:10;;;;;;;0.00;0.00;;;20.60;92.70;;;;;;5016220;28;20415;-89
2021/08/03 13:04:37;;;;;;;0.00;0.00;;;20.50;92.70;;;;;;5028189;28;20025;-89
2021/08/03 13:07:04;;;;;;;0.00;0.00;;;20.60;92.90;;;;;;5010846;28;20100;-89